createdAt,value
2022-08-27T00:00:06.446Z,2.50
2022-08-27T00:02:33.871Z,2.57
2022-08-27T00:05:03.293Z,2.40
2022-08-27T00:07:30.663Z,2.50
2022-08-27T00:09:58.136Z,2.20
2022-08-27T00:12:26.813Z,2.37
2022-08-27T00:14:54.171Z,2.43
2022-08-27T00:17:36.925Z,2.17
2022-08-27T00:20:05.418Z,2.33
2022-08-27T00:22:32.770Z,2.37
2022-08-27T00:25:03.345Z,2.70
2022-08-27T00:27:32.121Z,2.00
2022-08-27T00:29:59.414Z,2.10
2022-08-27T00:32:26.791Z,2.57
2022-08-27T00:34:54.087Z,2.23
2022-08-27T00:37:21.452Z,2.70
2022-08-27T00:39:48.893Z,2.10
2022-08-27T00:42:16.459Z,2.10
2022-08-27T00:44:45.100Z,2.20
2022-08-27T00:50:09.662Z,1.70
2022-08-27T00:52:41.527Z,2.23
2022-08-27T00:55:10.674Z,2.57
2022-08-27T00:57:39.554Z,2.43
2022-08-27T01:00:10.019Z,2.33
2022-08-27T01:02:46.659Z,1.93
2022-08-27T01:05:32.367Z,3.10
2022-08-27T01:08:07.420Z,2.03
2022-08-27T01:10:34.904Z,1.97
2022-08-27T01:13:02.383Z,2.20
2022-08-27T01:15:32.530Z,2.27
2022-08-27T01:18:20.748Z,2.13
2022-08-27T01:20:52.161Z,2.47
2022-08-27T01:23:23.194Z,2.10
2022-08-27T01:25:52.351Z,2.40
2022-08-27T01:28:20.667Z,2.17
2022-08-27T01:30:50.963Z,1.90
2022-08-27T01:33:37.250Z,2.03
2022-08-27T01:36:05.360Z,1.77
2022-08-27T01:38:32.987Z,2.10
2022-08-27T01:41:02.991Z,1.93
2022-08-27T01:47:10.503Z,2.30
2022-08-27T01:49:37.846Z,2.80
2022-08-27T01:52:05.181Z,2.70
2022-08-27T01:54:32.857Z,3.17
2022-08-27T01:57:01.782Z,2.50
2022-08-27T01:59:39.372Z,2.53
2022-08-27T02:05:05.758Z,2.70
2022-08-27T02:07:33.070Z,2.50
2022-08-27T02:10:00.594Z,2.60
2022-08-27T02:12:30.879Z,2.53
2022-08-27T02:18:03.692Z,2.17
2022-08-27T02:20:31.223Z,2.73
2022-08-27T02:22:59.039Z,2.30
2022-08-27T02:25:27.158Z,2.83
2022-08-27T02:27:59.813Z,2.67
2022-08-27T02:30:27.789Z,2.63
2022-08-27T02:32:55.107Z,2.53
2022-08-27T02:35:24.126Z,2.33
2022-08-27T02:37:51.591Z,2.40
2022-08-27T02:40:19.927Z,2.07
2022-08-27T02:42:47.341Z,2.73
2022-08-27T02:45:16.335Z,2.53
2022-08-27T02:47:59.142Z,2.50
2022-08-27T02:50:27.010Z,2.60
2022-08-27T02:52:57.818Z,2.10
2022-08-27T02:55:25.269Z,3.03
2022-08-27T02:57:52.548Z,2.67
2022-08-27T03:00:23.344Z,2.87
2022-08-27T03:02:56.215Z,3.50
2022-08-27T03:05:24.526Z,3.10
2022-08-27T03:07:51.859Z,2.83
2022-08-27T03:10:20.234Z,2.70
2022-08-27T03:12:47.523Z,2.40
2022-08-27T03:15:17.786Z,2.57
2022-08-27T03:17:46.759Z,2.47
2022-08-27T03:20:14.181Z,3.77
2022-08-27T03:22:41.509Z,3.03
2022-08-27T03:25:09.157Z,3.03
2022-08-27T03:30:29.046Z,2.37
2022-08-27T03:33:02.712Z,2.50
2022-08-27T03:35:30.244Z,2.80
2022-08-27T03:37:58.405Z,3.07
2022-08-27T03:40:25.806Z,2.83
2022-08-27T03:42:53.158Z,2.70
2022-08-27T03:45:20.481Z,3.13
2022-08-27T03:47:47.774Z,3.47
2022-08-27T03:50:16.497Z,3.43
2022-08-27T03:52:43.775Z,3.10
2022-08-27T03:55:11.274Z,3.20
2022-08-27T03:57:51.443Z,2.90
2022-08-27T04:00:19.175Z,3.30
2022-08-27T04:03:04.712Z,3.17
2022-08-27T04:05:33.786Z,3.60
2022-08-27T04:08:01.468Z,4.20
2022-08-27T04:10:28.760Z,3.60
2022-08-27T04:13:00.261Z,2.80
2022-08-27T04:15:27.598Z,2.87
2022-08-27T04:17:55.117Z,3.07
2022-08-27T04:20:34.926Z,3.27
2022-08-27T04:23:04.956Z,2.57
2022-08-27T04:25:32.325Z,2.83
2022-08-27T04:28:00.023Z,3.03
2022-08-27T04:30:47.670Z,3.30
2022-08-27T04:33:15.263Z,2.70
2022-08-27T04:35:42.642Z,3.00
2022-08-27T04:38:11.558Z,2.67
2022-08-27T04:40:39.278Z,2.57
2022-08-27T04:43:06.585Z,2.93
2022-08-27T04:48:17.719Z,2.47
2022-08-27T04:50:46.417Z,2.50
2022-08-27T04:53:16.079Z,2.47
2022-08-27T04:55:44.544Z,2.93
2022-08-27T04:58:11.952Z,3.00
2022-08-27T05:00:58.383Z,2.70
2022-08-27T05:03:47.519Z,3.57
2022-08-27T05:06:20.657Z,2.50
2022-08-27T05:08:50.110Z,3.20
2022-08-27T05:11:18.890Z,3.27
2022-08-27T05:13:46.424Z,3.33
2022-08-27T05:16:15.019Z,2.93
2022-08-27T05:18:48.269Z,2.97
2022-08-27T05:21:20.886Z,3.77
2022-08-27T05:23:49.631Z,3.17
2022-08-27T05:26:17.427Z,2.90
2022-08-27T05:28:45.070Z,3.30
2022-08-27T05:31:13.905Z,2.87
2022-08-27T05:33:42.635Z,3.50
2022-08-27T05:39:01.678Z,3.80
2022-08-27T05:41:33.977Z,3.43
2022-08-27T05:44:13.812Z,3.13
2022-08-27T05:46:50.318Z,3.67
2022-08-27T05:49:17.686Z,3.00
2022-08-27T05:52:05.385Z,3.13
2022-08-27T05:54:47.071Z,2.90
2022-08-27T05:57:14.442Z,3.20
2022-08-27T05:59:41.776Z,3.13
2022-08-27T06:02:09.140Z,3.17
2022-08-27T06:04:37.187Z,3.30
2022-08-27T06:07:04.740Z,3.13
2022-08-27T06:09:32.105Z,2.90
2022-08-27T06:12:01.241Z,3.20
2022-08-27T06:14:28.918Z,3.30
2022-08-27T06:16:56.339Z,2.70
2022-08-27T06:19:23.983Z,2.90
2022-08-27T06:22:00.280Z,2.80
2022-08-27T06:24:28.789Z,3.40
2022-08-27T06:26:56.262Z,2.87
2022-08-27T06:29:25.062Z,2.90
2022-08-27T06:31:52.626Z,2.80
2022-08-27T06:34:19.991Z,3.10
2022-08-27T06:36:47.437Z,6.07
2022-08-27T06:39:14.797Z,11.63
2022-08-27T06:41:42.801Z,19.73
2022-08-27T06:44:12.079Z,15.80
2022-08-27T06:46:40.919Z,5.90
2022-08-27T06:49:08.267Z,7.10
2022-08-27T06:51:36.530Z,5.43
2022-08-27T06:54:05.210Z,3.87
2022-08-27T06:56:33.065Z,2.60
2022-08-27T06:59:01.122Z,3.17
2022-08-27T07:01:30.367Z,3.47
2022-08-27T07:04:00.335Z,2.80
2022-08-27T07:06:46.368Z,2.90
2022-08-27T07:09:35.582Z,2.80
2022-08-27T07:12:03.447Z,3.03
2022-08-27T07:14:35.595Z,2.63
2022-08-27T07:17:05.484Z,3.03
2022-08-27T07:19:36.426Z,2.27
2022-08-27T07:22:08.396Z,2.90
2022-08-27T07:27:26.358Z,2.53
2022-08-27T07:29:53.798Z,2.30
2022-08-27T07:32:21.256Z,2.53
2022-08-27T07:34:59.101Z,2.20
2022-08-27T07:37:29.603Z,2.93
2022-08-27T07:40:03.169Z,2.70
2022-08-27T07:42:43.254Z,2.20
2022-08-27T07:45:26.280Z,2.43
2022-08-27T07:48:08.822Z,2.20
2022-08-27T07:50:37.551Z,2.00
2022-08-27T07:53:04.842Z,2.50
2022-08-27T07:55:32.153Z,2.17
2022-08-27T07:57:59.391Z,3.17
2022-08-27T08:00:36.175Z,4.57
2022-08-27T08:03:05.347Z,3.53
2022-08-27T08:05:32.615Z,3.60
2022-08-27T08:08:01.234Z,3.00
2022-08-27T08:10:47.454Z,3.40
2022-08-27T08:16:15.037Z,2.40
2022-08-27T08:18:42.494Z,2.63
2022-08-27T08:21:10.771Z,2.20
2022-08-27T08:23:39.942Z,2.60
2022-08-27T08:26:07.938Z,2.03
2022-08-27T08:28:35.511Z,2.13
2022-08-27T08:31:02.898Z,2.03
2022-08-27T08:33:30.274Z,2.57
2022-08-27T08:36:02.608Z,2.20
2022-08-27T08:38:30.006Z,2.60
2022-08-27T08:40:58.815Z,2.20
2022-08-27T08:43:29.634Z,2.77
2022-08-27T08:46:21.034Z,2.17
2022-08-27T08:48:58.131Z,1.97
2022-08-27T08:51:29.754Z,2.27
2022-08-27T08:53:58.838Z,2.37
2022-08-27T08:56:29.220Z,2.40
2022-08-27T08:58:59.410Z,1.93
2022-08-27T09:01:27.353Z,1.80
2022-08-27T09:03:56.203Z,1.87
2022-08-27T09:06:29.839Z,2.23
2022-08-27T09:09:00.674Z,2.10
2022-08-27T09:11:33.797Z,1.90
2022-08-27T09:14:02.528Z,2.03
2022-08-27T09:16:30.117Z,1.80
2022-08-27T09:18:57.434Z,1.70
2022-08-27T09:21:32.545Z,2.43
2022-08-27T09:24:03.817Z,1.90
2022-08-27T09:26:33.506Z,1.90
2022-08-27T09:29:05.717Z,1.93
2022-08-27T09:31:36.527Z,2.07
2022-08-27T09:36:49.383Z,1.57
2022-08-27T09:39:16.838Z,1.97
2022-08-27T09:41:46.768Z,1.80
2022-08-27T09:44:14.979Z,1.70
2022-08-27T09:46:51.857Z,2.40
2022-08-27T09:49:20.890Z,1.40
2022-08-27T09:51:48.898Z,1.70
2022-08-27T09:54:27.797Z,1.93
2022-08-27T09:56:56.700Z,1.90
2022-08-27T09:59:28.185Z,1.97
2022-08-27T10:01:56.733Z,2.23
2022-08-27T10:04:28.749Z,2.00
2022-08-27T10:06:56.162Z,1.87
2022-08-27T10:09:27.100Z,2.20
2022-08-27T10:12:00.144Z,1.53
2022-08-27T10:14:31.660Z,2.50
2022-08-27T10:17:05.554Z,1.80
2022-08-27T10:19:40.910Z,1.43
2022-08-27T10:22:12.919Z,1.43
2022-08-27T10:24:59.649Z,2.00
2022-08-27T10:27:48.746Z,1.63
2022-08-27T10:30:26.356Z,2.37
2022-08-27T10:32:57.345Z,1.90
2022-08-27T10:35:27.285Z,2.23
2022-08-27T10:38:01.302Z,2.00
2022-08-27T10:40:29.873Z,1.70
2022-08-27T10:43:02.948Z,2.00
2022-08-27T10:45:44.904Z,1.80
2022-08-27T10:48:16.582Z,1.53
2022-08-27T10:50:46.557Z,1.60
2022-08-27T10:53:28.847Z,1.40
2022-08-27T10:56:22.326Z,1.77
2022-08-27T10:59:11.671Z,3.03
2022-08-27T11:01:45.725Z,2.50
2022-08-27T11:04:15.656Z,4.27
2022-08-27T11:06:45.106Z,4.93
2022-08-27T11:09:14.862Z,2.83
2022-08-27T11:14:33.868Z,2.37
2022-08-27T11:17:05.350Z,2.53
2022-08-27T11:19:38.457Z,3.07
2022-08-27T11:22:12.207Z,2.13
2022-08-27T11:24:48.449Z,2.13
2022-08-27T11:27:17.267Z,2.30
2022-08-27T11:29:47.072Z,2.33
2022-08-27T11:32:25.992Z,1.40
2022-08-27T11:34:55.590Z,2.03
2022-08-27T11:37:35.166Z,1.77
2022-08-27T11:40:09.778Z,2.30
2022-08-27T11:42:39.369Z,2.00
2022-08-27T11:45:08.008Z,2.27
2022-08-27T11:50:18.588Z,2.03
2022-08-27T11:52:55.002Z,2.03
2022-08-27T11:55:26.282Z,2.97
2022-08-27T11:58:05.705Z,1.87
2022-08-27T12:00:34.427Z,1.50
2022-08-27T12:03:09.188Z,1.90
2022-08-27T12:05:40.278Z,1.70
2022-08-27T12:08:20.309Z,3.40
2022-08-27T12:10:58.456Z,2.30
2022-08-27T12:13:30.087Z,2.30
2022-08-27T12:16:02.684Z,2.63
2022-08-27T12:18:39.298Z,2.17
2022-08-27T12:21:14.577Z,2.20
2022-08-27T12:23:45.702Z,1.70
2022-08-27T12:26:19.491Z,1.87
2022-08-27T12:28:46.861Z,1.57
2022-08-27T12:31:17.989Z,1.60
2022-08-27T12:33:46.813Z,2.17
2022-08-27T12:36:18.296Z,2.57
2022-08-27T12:38:56.150Z,1.97
2022-08-27T12:41:27.544Z,2.00
2022-08-27T12:44:03.706Z,1.50
2022-08-27T12:46:31.571Z,1.73
2022-08-27T12:49:38.104Z,1.73
2022-08-27T12:52:14.227Z,1.47
2022-08-27T12:54:44.886Z,1.80
2022-08-27T12:57:15.601Z,1.47
2022-08-27T12:59:49.698Z,1.63
2022-08-27T13:02:24.016Z,2.17
2022-08-27T13:04:51.730Z,1.43
2022-08-27T13:07:28.710Z,2.47
2022-08-27T13:10:09.326Z,2.10
2022-08-27T13:12:36.692Z,1.70
2022-08-27T13:15:06.680Z,1.90
2022-08-27T13:17:39.961Z,1.73
2022-08-27T13:20:14.117Z,1.50
2022-08-27T13:22:48.046Z,1.60
2022-08-27T13:25:26.250Z,1.30
2022-08-27T13:27:55.280Z,1.63
2022-08-27T13:30:35.710Z,1.52
2022-08-27T13:33:04.851Z,1.30
2022-08-27T13:35:32.271Z,1.50
2022-08-27T13:38:02.022Z,1.80
2022-08-27T13:40:31.211Z,1.80
2022-08-27T13:43:03.123Z,1.30
2022-08-27T13:45:30.638Z,1.38
2022-08-27T13:47:57.996Z,1.50
2022-08-27T13:50:26.241Z,1.75
2022-08-27T13:53:08.996Z,2.03
2022-08-27T13:55:47.637Z,1.83
2022-08-27T13:58:16.604Z,1.33
2022-08-27T14:00:44.025Z,0.90
2022-08-27T14:03:28.993Z,1.40
2022-08-27T14:05:56.274Z,1.88
2022-08-27T14:08:33.437Z,1.70
2022-08-27T14:11:02.704Z,1.20
2022-08-27T14:13:30.236Z,1.60
2022-08-27T14:15:58.657Z,1.50
2022-08-27T14:18:42.530Z,1.58
2022-08-27T14:24:06.024Z,1.80
2022-08-27T14:26:33.526Z,1.73
2022-08-27T14:29:01.182Z,1.83
2022-08-27T14:31:28.931Z,1.53
2022-08-27T14:33:57.616Z,1.42
2022-08-27T14:36:31.971Z,1.58
2022-08-27T14:38:59.483Z,2.10
2022-08-27T14:41:29.159Z,1.97
2022-08-27T14:44:00.527Z,1.30
2022-08-27T14:46:29.374Z,2.73
2022-08-27T14:48:58.447Z,1.60
2022-08-27T14:54:15.608Z,1.40
2022-08-27T14:56:46.908Z,2.50
2022-08-27T14:59:17.550Z,1.90
2022-08-27T15:05:26.452Z,1.33
2022-08-27T15:07:54.412Z,1.90
2022-08-27T15:10:21.740Z,1.93
2022-08-27T15:12:50.684Z,1.40
2022-08-27T15:15:18.071Z,2.03
2022-08-27T15:17:45.508Z,1.90
2022-08-27T15:20:20.208Z,1.60
2022-08-27T15:23:11.561Z,1.67
2022-08-27T15:25:39.487Z,1.93
2022-08-27T15:28:08.230Z,1.77
2022-08-27T15:30:35.646Z,1.75
2022-08-27T15:33:04.235Z,1.98
2022-08-27T15:35:38.060Z,1.97
2022-08-27T15:38:27.388Z,2.33
2022-08-27T15:41:13.306Z,1.73
2022-08-27T15:43:42.075Z,2.30
2022-08-27T15:46:09.428Z,1.80
2022-08-27T15:48:37.115Z,1.80
2022-08-27T15:51:06.156Z,1.53
2022-08-27T15:53:34.266Z,1.80
2022-08-27T15:58:37.831Z,2.47
2022-08-27T16:01:08.645Z,2.30
2022-08-27T16:03:36.183Z,2.00
2022-08-27T16:06:10.471Z,1.97
2022-08-27T16:09:15.600Z,1.90
2022-08-27T16:11:46.666Z,2.20
2022-08-27T16:14:14.056Z,1.97
2022-08-27T16:16:44.794Z,2.00
2022-08-27T16:19:16.460Z,1.93
2022-08-27T16:21:44.020Z,1.40
2022-08-27T16:24:11.278Z,2.23
2022-08-27T16:26:39.015Z,2.27
2022-08-27T16:29:06.736Z,1.80
2022-08-27T16:31:34.054Z,2.40
2022-08-27T16:34:04.684Z,1.73
2022-08-27T16:36:31.968Z,1.50
2022-08-27T16:39:17.730Z,1.87
2022-08-27T16:41:45.110Z,2.17
2022-08-27T16:44:12.448Z,2.30
2022-08-27T16:46:39.847Z,2.90
2022-08-27T16:49:08.466Z,2.07
2022-08-27T16:51:36.154Z,1.97
2022-08-27T16:54:04.453Z,2.27
2022-08-27T16:56:36.385Z,1.87
2022-08-27T16:59:05.206Z,2.30
2022-08-27T17:01:33.163Z,1.80
2022-08-27T17:04:13.373Z,1.97
2022-08-27T17:06:43.423Z,2.10
2022-08-27T17:11:54.488Z,2.07
2022-08-27T17:14:22.031Z,1.60
2022-08-27T17:16:50.686Z,2.27
2022-08-27T17:19:18.075Z,2.10
2022-08-27T17:21:46.742Z,1.30
2022-08-27T17:24:14.326Z,2.20
2022-08-27T17:26:46.787Z,1.87
2022-08-27T17:29:14.070Z,1.53
2022-08-27T17:31:42.429Z,1.97
2022-08-27T17:34:14.726Z,1.90
2022-08-27T17:36:44.240Z,1.90
2022-08-27T17:39:13.235Z,2.30
2022-08-27T17:41:41.751Z,1.63
2022-08-27T17:44:13.674Z,1.73
2022-08-27T17:46:40.941Z,1.70
2022-08-27T17:49:08.240Z,1.50
2022-08-27T17:51:35.555Z,1.70
2022-08-27T17:54:03.498Z,1.80
2022-08-27T17:56:38.699Z,1.67
2022-08-27T17:59:06.098Z,1.40
2022-08-27T18:01:33.341Z,1.57
2022-08-27T18:04:00.880Z,1.60
2022-08-27T18:06:28.742Z,1.93
2022-08-27T18:08:55.993Z,2.13
2022-08-27T18:11:23.328Z,1.60
2022-08-27T18:13:52.986Z,2.10
2022-08-27T18:16:20.342Z,2.07
2022-08-27T18:18:47.879Z,2.00
2022-08-27T18:21:25.110Z,2.03
2022-08-27T18:23:53.015Z,1.90
2022-08-27T18:26:21.275Z,1.70
2022-08-27T18:28:48.881Z,2.43
2022-08-27T18:31:19.056Z,1.97
2022-08-27T18:33:46.287Z,2.00
2022-08-27T18:36:13.543Z,2.23
2022-08-27T18:38:40.846Z,2.30
2022-08-27T18:41:08.522Z,2.00
2022-08-27T18:43:36.500Z,2.00
2022-08-27T18:46:05.010Z,2.63
2022-08-27T18:48:34.212Z,1.80
2022-08-27T18:51:03.252Z,2.30
2022-08-27T18:53:32.033Z,1.83
2022-08-27T18:55:59.332Z,2.53
2022-08-27T18:58:30.702Z,1.67
2022-08-27T19:01:01.158Z,2.43
2022-08-27T19:03:30.319Z,2.27
2022-08-27T19:06:00.627Z,1.70
2022-08-27T19:08:47.879Z,2.47
2022-08-27T19:11:20.414Z,2.13
2022-08-27T19:13:50.692Z,2.10
2022-08-27T19:16:19.640Z,2.00
2022-08-27T19:18:47.109Z,2.33
2022-08-27T19:21:15.743Z,2.20
2022-08-27T19:23:43.355Z,2.23
2022-08-27T19:26:15.039Z,2.23
2022-08-27T19:28:42.779Z,1.93
2022-08-27T19:31:10.038Z,2.53
2022-08-27T19:33:37.523Z,2.47
2022-08-27T19:36:04.987Z,2.43
2022-08-27T19:38:34.127Z,2.57
2022-08-27T19:41:02.462Z,2.20
2022-08-27T19:43:29.721Z,2.43
2022-08-27T19:45:57.719Z,2.60
2022-08-27T19:48:25.011Z,2.67
2022-08-27T19:50:52.296Z,2.67
2022-08-27T19:53:19.603Z,2.73
2022-08-27T19:55:48.433Z,2.63
2022-08-27T19:58:17.264Z,2.90
2022-08-27T20:00:45.368Z,2.90
2022-08-27T20:03:12.985Z,2.27
2022-08-27T20:05:40.586Z,2.90
2022-08-27T20:08:07.876Z,2.80
2022-08-27T20:10:36.255Z,2.70
2022-08-27T20:13:05.674Z,3.50
2022-08-27T20:15:33.170Z,4.57
2022-08-27T20:18:00.838Z,3.13
2022-08-27T20:20:28.642Z,3.83
2022-08-27T20:22:55.940Z,3.53
2022-08-27T20:25:23.325Z,4.10
2022-08-27T20:27:50.694Z,4.13
2022-08-27T20:30:20.767Z,3.80
2022-08-27T20:32:48.135Z,4.93
2022-08-27T20:35:15.911Z,4.30
2022-08-27T20:37:43.692Z,4.30
2022-08-27T20:40:13.283Z,5.03
2022-08-27T20:42:40.695Z,4.40
2022-08-27T20:45:11.987Z,4.20
2022-08-27T20:47:41.158Z,3.90
2022-08-27T20:50:08.888Z,3.53
2022-08-27T20:52:36.201Z,4.60
2022-08-27T20:55:04.081Z,3.57
2022-08-27T20:57:31.405Z,3.83
2022-08-27T20:59:58.721Z,4.20
2022-08-27T21:02:27.917Z,3.70
2022-08-27T21:04:56.932Z,3.47
2022-08-27T21:07:25.733Z,3.97
2022-08-27T21:09:56.847Z,3.90
2022-08-27T21:12:36.959Z,4.00
2022-08-27T21:15:05.056Z,3.93
2022-08-27T21:17:32.299Z,3.13
2022-08-27T21:20:01.019Z,3.33
2022-08-27T21:22:28.521Z,4.50
2022-08-27T21:24:55.849Z,3.73
2022-08-27T21:27:23.127Z,4.07
2022-08-27T21:29:50.642Z,5.33
2022-08-27T21:32:18.251Z,4.23
2022-08-27T21:34:45.751Z,4.03
2022-08-27T21:37:15.168Z,4.20
2022-08-27T21:39:43.225Z,3.17
2022-08-27T21:42:36.035Z,2.90
2022-08-27T21:45:03.576Z,4.93
2022-08-27T21:47:30.839Z,3.93
2022-08-27T21:49:58.072Z,4.30
2022-08-27T21:59:15.360Z,3.77
2022-08-27T22:01:42.708Z,4.73
2022-08-27T22:04:10.234Z,4.37
2022-08-27T22:06:38.371Z,5.87
2022-08-27T22:09:06.047Z,5.73
2022-08-27T22:11:33.283Z,6.30
2022-08-27T22:14:00.551Z,5.13
2022-08-27T22:16:29.230Z,4.70
2022-08-27T22:18:56.635Z,4.90
2022-08-27T22:21:23.985Z,3.87
2022-08-27T22:23:51.495Z,4.00
2022-08-27T22:26:19.115Z,3.97
2022-08-27T22:28:46.391Z,3.80
2022-08-27T22:31:13.800Z,3.70
2022-08-27T22:33:42.629Z,3.67
2022-08-27T22:36:10.236Z,3.90
2022-08-27T22:38:37.578Z,3.93
2022-08-27T22:41:05.746Z,4.60
2022-08-27T22:43:33.346Z,4.97
2022-08-27T22:46:00.607Z,4.57
2022-08-27T22:48:27.963Z,4.10
2022-08-27T22:50:56.550Z,4.70
2022-08-27T22:53:23.847Z,3.90
2022-08-27T22:55:51.355Z,4.33
2022-08-27T22:58:33.889Z,4.57
2022-08-27T23:01:01.378Z,4.33
2022-08-27T23:03:28.654Z,4.63
2022-08-27T23:05:57.338Z,3.83
2022-08-27T23:08:48.412Z,5.43
2022-08-27T23:11:37.468Z,5.33
2022-08-27T23:14:04.998Z,3.43
2022-08-27T23:16:32.358Z,3.60
2022-08-27T23:18:59.656Z,4.43
2022-08-27T23:21:28.494Z,3.90
2022-08-27T23:23:55.768Z,3.40
2022-08-27T23:26:23.014Z,3.60
2022-08-27T23:28:50.321Z,3.70
2022-08-27T23:31:17.713Z,3.30
2022-08-27T23:33:45.243Z,4.50
2022-08-27T23:36:12.842Z,3.93
2022-08-27T23:38:41.510Z,3.90
2022-08-27T23:41:09.513Z,4.13
2022-08-27T23:43:36.801Z,3.80
2022-08-27T23:46:04.815Z,4.00
2022-08-27T23:48:32.094Z,3.43
2022-08-27T23:50:59.331Z,3.87
2022-08-27T23:53:26.594Z,3.20
2022-08-27T23:56:08.493Z,3.90
2022-08-27T23:58:35.711Z,3.83
